createdAt,value
2022-09-28T00:00:16.316Z,74.29688
2022-09-28T00:05:15.077Z,74.39355
2022-09-28T00:10:22.007Z,74.0752
2022-09-28T00:15:15.071Z,74.35254
2022-09-28T00:20:22.165Z,74.19336
2022-09-28T00:25:16.617Z,74.32715
2022-09-28T00:30:16.674Z,74.11035
2022-09-28T00:35:14.727Z,74.10547
2022-09-28T00:40:14.716Z,74.07715
2022-09-28T00:45:15.852Z,74.1875
2022-09-28T00:50:24.705Z,74.27832
2022-09-28T00:55:17.511Z,74.3623
2022-09-28T01:00:16.571Z,74.31348
2022-09-28T01:05:15.374Z,74.00195
2022-09-28T01:10:14.508Z,74.24219
2022-09-28T01:15:15.375Z,74.16895
2022-09-28T01:20:49.874Z,74.18945
2022-09-28T01:25:15.994Z,74.42383
2022-09-28T01:30:15.891Z,74.06543
2022-09-28T01:35:18.861Z,74.24121
2022-09-28T01:40:18.145Z,74.12207
2022-09-28T01:45:18.518Z,74.35645
2022-09-28T01:50:22.379Z,74.16406
2022-09-28T01:55:16.297Z,74.40527
2022-09-28T02:00:17.677Z,74.34863
2022-09-28T02:05:18.228Z,74.2168
2022-09-28T02:10:18.155Z,74.43652
2022-09-28T02:15:16.320Z,74.46777
2022-09-28T02:20:19.299Z,74.48242
2022-09-28T02:25:18.625Z,74.47461
2022-09-28T02:30:14.988Z,74.41211
2022-09-28T02:35:16.691Z,74.36328
2022-09-28T02:40:21.720Z,74.65527
2022-09-28T02:45:19.777Z,74.48926
2022-09-28T02:50:27.811Z,74.48242
2022-09-28T02:55:26.805Z,74.72461
2022-09-28T03:00:20.321Z,74.5752
2022-09-28T03:05:19.399Z,74.60156
2022-09-28T03:10:18.390Z,74.48242
2022-09-28T03:15:17.259Z,74.60547
2022-09-28T03:20:19.861Z,74.51074
2022-09-28T03:25:15.291Z,74.47949
2022-09-28T03:30:15.771Z,74.34668
2022-09-28T03:35:14.904Z,74.44531
2022-09-28T03:40:14.865Z,74.38086
2022-09-28T03:45:19.251Z,74.35059
2022-09-28T03:50:18.935Z,74.33691
2022-09-28T03:55:14.686Z,74.375
2022-09-28T04:00:14.995Z,74.43262
2022-09-28T04:05:14.614Z,74.54883
2022-09-28T04:10:14.580Z,74.41406
2022-09-28T04:15:15.602Z,74.27148
2022-09-28T04:20:18.989Z,74.34473
2022-09-28T04:25:15.681Z,74.2207
2022-09-28T04:30:15.661Z,74.30078
2022-09-28T04:35:15.649Z,74.08008
2022-09-28T04:40:15.010Z,74.14355
2022-09-28T04:45:15.154Z,74.33203
2022-09-28T04:50:20.602Z,74.41504
2022-09-28T04:55:20.456Z,74.53613
2022-09-28T05:00:18.596Z,74.37891
2022-09-28T05:05:16.638Z,74.34277
2022-09-28T05:10:14.680Z,74.38574
2022-09-28T05:15:18.518Z,74.51758
2022-09-28T05:20:21.929Z,74.19434
2022-09-28T05:25:14.885Z,74.30273
2022-09-28T05:30:17.508Z,74.15527
2022-09-28T05:35:16.587Z,74.39844
2022-09-28T05:40:18.871Z,74.25586
2022-09-28T05:45:17.880Z,74.24805
2022-09-28T05:50:26.617Z,74.10352
2022-09-28T05:55:17.640Z,74.10352
2022-09-28T06:00:17.015Z,74.13965
2022-09-28T06:05:20.289Z,74.03516
2022-09-28T06:10:14.685Z,74.47461
2022-09-28T06:15:22.311Z,74.98242
2022-09-28T06:20:24.162Z,75.0127
2022-09-28T06:25:21.466Z,74.85156
2022-09-28T06:30:16.468Z,74.21875
2022-09-28T06:35:16.740Z,74.36133
2022-09-28T06:40:14.636Z,73.68457
2022-09-28T06:45:17.391Z,73.82129
2022-09-28T06:50:25.157Z,73.98828
2022-09-28T06:55:14.801Z,74.05273
2022-09-28T07:00:17.672Z,73.0957
2022-09-28T07:05:20.661Z,73.35742
2022-09-28T07:10:18.888Z,73.44141
2022-09-28T07:15:14.864Z,72.44434
2022-09-28T07:20:31.945Z,72.61328
2022-09-28T07:25:14.651Z,71.98828
2022-09-28T07:30:23.520Z,72.5166
2022-09-28T07:35:18.832Z,72.79883
2022-09-28T07:40:26.684Z,72.89063
2022-09-28T07:45:15.080Z,73.04785
2022-09-28T07:50:30.358Z,72.34961
2022-09-28T07:55:15.030Z,72.05176
2022-09-28T08:00:15.474Z,71.20801
2022-09-28T08:05:15.513Z,70.2168
2022-09-28T08:10:15.267Z,69.43262
2022-09-28T08:15:17.318Z,68.75781
2022-09-28T08:20:49.446Z,67.49707
2022-09-28T08:25:19.227Z,66.63574
2022-09-28T08:30:15.250Z,66.25
2022-09-28T08:35:15.586Z,64.75195
2022-09-28T08:40:19.299Z,63.92578
2022-09-28T08:45:21.651Z,62.50977
2022-09-28T08:50:30.725Z,62.13086
2022-09-28T08:55:18.961Z,61.00488
2022-09-28T09:00:19.559Z,60.46973
2022-09-28T09:05:19.868Z,59.39844
2022-09-28T09:10:31.628Z,58.45313
2022-09-28T09:15:24.959Z,57.61328
2022-09-28T09:20:20.201Z,57.39551
2022-09-28T09:25:22.035Z,55.80469
2022-09-28T09:30:19.477Z,55.21289
2022-09-28T09:35:25.149Z,55.9707
2022-09-28T09:40:31.997Z,55.27148
2022-09-28T09:45:28.582Z,54.61133
2022-09-28T09:50:29.724Z,55.00098
2022-09-28T09:55:19.173Z,55.74414
2022-09-28T10:00:19.470Z,55.94824
2022-09-28T10:05:27.683Z,56.8623
2022-09-28T10:10:27.272Z,57.78809
2022-09-28T10:15:22.363Z,58.64746
2022-09-28T10:20:25.328Z,56.92676
2022-09-28T10:25:19.400Z,56.12402
2022-09-28T10:30:23.129Z,56.62695
2022-09-28T10:35:27.068Z,57.76172
2022-09-28T10:40:28.080Z,58.63086
2022-09-28T10:45:23.576Z,59.4375
2022-09-28T10:50:24.860Z,58.97168
2022-09-28T10:55:28.187Z,58.3125
2022-09-28T11:00:27.174Z,56.63965
2022-09-28T11:05:23.654Z,55.48926
2022-09-28T11:10:22.711Z,55.10059
2022-09-28T11:15:22.061Z,55.96094
2022-09-28T11:20:28.620Z,58.07129
2022-09-28T11:25:24.255Z,59.22754
2022-09-28T11:30:25.166Z,59.4707
2022-09-28T11:35:21.636Z,59.19824
2022-09-28T11:40:22.276Z,59.63672
2022-09-28T11:45:27.543Z,59.66504
2022-09-28T11:50:24.350Z,60.33984
2022-09-28T11:55:21.196Z,61.15625
2022-09-28T12:00:22.383Z,59.8916
2022-09-28T12:05:25.358Z,60.41016
2022-09-28T12:10:19.466Z,60.13477
2022-09-28T12:15:21.453Z,61.08496
2022-09-28T12:20:19.169Z,62.87402
2022-09-28T12:25:24.132Z,64.26953
2022-09-28T12:30:22.865Z,65.09277
2022-09-28T12:35:24.578Z,65.44434
2022-09-28T12:40:27.506Z,66.66699
2022-09-28T12:45:21.599Z,66.35547
2022-09-28T12:50:38.253Z,66.27441
2022-09-28T12:55:25.695Z,66.11035
2022-09-28T13:00:18.843Z,66.4834
2022-09-28T13:05:25.091Z,66.5459
2022-09-28T13:10:23.453Z,66.10156
2022-09-28T13:15:28.969Z,66.35352
2022-09-28T13:20:19.562Z,66.43066
2022-09-28T13:25:18.670Z,66.27344
2022-09-28T13:30:19.214Z,66.63672
2022-09-28T13:35:19.293Z,64.09375
2022-09-28T13:40:14.778Z,63.86719
2022-09-28T13:45:21.462Z,62.37695
2022-09-28T13:50:25.482Z,62.56445
2022-09-28T13:55:28.441Z,61.35352
2022-09-28T14:00:25.196Z,62.77344
2022-09-28T14:05:37.119Z,61.55078
2022-09-28T14:10:40.874Z,60.22363
2022-09-28T14:15:33.313Z,59.49219
2022-09-28T14:20:19.653Z,59.54785
2022-09-28T14:25:22.404Z,57.93066
2022-09-28T14:30:21.329Z,58.2373
2022-09-28T14:35:20.242Z,58.77539
2022-09-28T14:40:31.901Z,59.04785
2022-09-28T14:45:45.191Z,59.76172
2022-09-28T14:50:28.372Z,60.7041
2022-09-28T14:55:27.608Z,60.96875
2022-09-28T15:00:26.121Z,61.32715
2022-09-28T15:05:22.766Z,61.65137
2022-09-28T15:10:27.752Z,61.53125
2022-09-28T15:15:28.010Z,62.01465
2022-09-28T15:20:24.858Z,61.00488
2022-09-28T15:25:20.013Z,61.26465
2022-09-28T15:30:27.655Z,61.03027
2022-09-28T15:35:21.941Z,61.03223
2022-09-28T15:40:21.627Z,61.18457
2022-09-28T15:45:26.382Z,62.00195
2022-09-28T15:50:25.585Z,62.70215
2022-09-28T15:55:24.377Z,63.40137
2022-09-28T16:00:25.731Z,63.8623
2022-09-28T16:05:35.554Z,64.09668
2022-09-28T16:10:25.580Z,64.07715
2022-09-28T16:15:20.572Z,63.98828
2022-09-28T16:20:26.487Z,64.22852
2022-09-28T16:25:21.674Z,64.36523
2022-09-28T16:30:25.622Z,64.5293
2022-09-28T16:35:25.208Z,64.56934
2022-09-28T16:40:16.169Z,64.1709
2022-09-28T16:45:26.628Z,63.69238
2022-09-28T16:50:14.816Z,63.84375
2022-09-28T16:55:39.676Z,63.98926
2022-09-28T17:00:20.872Z,64.01563
2022-09-28T17:05:18.779Z,63.55176
2022-09-28T17:10:19.499Z,63.65723
2022-09-28T17:15:19.358Z,63.87402
2022-09-28T17:20:20.085Z,63.8877
2022-09-28T17:25:17.276Z,63.81641
2022-09-28T17:30:15.231Z,64.28027
2022-09-28T17:35:24.682Z,64.23535
2022-09-28T17:40:21.803Z,63.97949
2022-09-28T17:45:15.789Z,64.7168
2022-09-28T17:50:21.621Z,65.24316
2022-09-28T17:55:14.587Z,65.21582
2022-09-28T18:00:15.010Z,65.61328
2022-09-28T18:05:16.491Z,65.2666
2022-09-28T18:10:19.740Z,65.60742
2022-09-28T18:15:18.349Z,66.10938
2022-09-28T18:20:17.106Z,66.35156
2022-09-28T18:25:14.701Z,66.67871
2022-09-28T18:30:18.861Z,66.51758
2022-09-28T18:35:22.764Z,67.57813
2022-09-28T18:40:16.919Z,67.23242
2022-09-28T18:45:17.603Z,67.34277
2022-09-28T18:50:15.254Z,67.66895
2022-09-28T18:55:15.686Z,67.875
2022-09-28T19:00:15.890Z,67.61328
2022-09-28T19:05:17.117Z,67.92773
2022-09-28T19:10:20.962Z,67.93652
2022-09-28T19:15:16.740Z,67.77344
2022-09-28T19:20:17.211Z,68.53711
2022-09-28T19:25:15.955Z,68.43945
2022-09-28T19:30:15.655Z,68.32813
2022-09-28T19:35:16.842Z,68.49316
2022-09-28T19:40:14.706Z,68.46973
2022-09-28T19:45:14.594Z,68.5918
2022-09-28T19:50:15.419Z,68.81738
2022-09-28T19:55:17.882Z,68.90625
2022-09-28T20:00:19.676Z,68.91406
2022-09-28T20:05:17.799Z,69.14648
2022-09-28T20:10:18.056Z,68.83008
2022-09-28T20:15:16.610Z,69.66992
2022-09-28T20:20:14.377Z,68.94434
2022-09-28T20:25:14.696Z,69.16602
2022-09-28T20:30:19.114Z,69.30762
2022-09-28T20:35:22.353Z,69.20898
2022-09-28T20:40:18.885Z,69.60645
2022-09-28T20:45:14.540Z,69.63965
2022-09-28T20:50:19.946Z,69.84961
2022-09-28T20:55:14.362Z,69.64648
2022-09-28T21:00:15.119Z,69.98242
2022-09-28T21:05:15.602Z,69.89258
2022-09-28T21:10:17.587Z,69.7373
2022-09-28T21:15:15.241Z,69.44141
2022-09-28T21:20:14.746Z,69.70508
2022-09-28T21:25:17.189Z,69.63672
2022-09-28T21:30:19.818Z,69.38965
2022-09-28T21:35:14.363Z,69.5625
2022-09-28T21:40:15.250Z,69.39453
2022-09-28T21:45:14.320Z,69.81348
2022-09-28T21:50:17.579Z,69.89844
2022-09-28T21:55:14.394Z,69.75
2022-09-28T22:00:18.810Z,69.7627
2022-09-28T22:05:15.474Z,69.68457
2022-09-28T22:10:16.551Z,69.4873
2022-09-28T22:15:15.801Z,69.81445
2022-09-28T22:20:14.503Z,69.78906
2022-09-28T22:25:14.196Z,69.56836
2022-09-28T22:30:19.241Z,69.83691
2022-09-28T22:35:15.792Z,69.80078
2022-09-28T22:40:14.989Z,69.6377
2022-09-28T22:45:14.306Z,69.55273
2022-09-28T22:50:14.412Z,69.46777
2022-09-28T22:55:21.752Z,69.44727
2022-09-28T23:00:14.692Z,69.74902
2022-09-28T23:05:14.772Z,69.45703
2022-09-28T23:10:14.476Z,69.32422
2022-09-28T23:15:15.275Z,69.62109
2022-09-28T23:20:17.300Z,69.68945
2022-09-28T23:25:14.420Z,69.93164
2022-09-28T23:30:17.595Z,70.33984
2022-09-28T23:35:17.806Z,70.35449
2022-09-28T23:40:16.808Z,69.48145
2022-09-28T23:45:15.242Z,69.75391
2022-09-28T23:50:17.518Z,70.42285
2022-09-28T23:55:16.881Z,70.56934
